sensor_id;sensor_type;location;lat;lon;timestamp;pressure;altitude;pressure_sealevel;temperature;humidity
12799;BME280;19250;42.646;26.980;2023-05-17T00:01:31;98470.91;;;16.40;100.00
12799;BME280;19250;42.646;26.980;2023-05-17T00:03:59;98464.50;;;16.48;100.00
12799;BME280;19250;42.646;26.980;2023-05-17T00:06:26;98465.31;;;16.28;100.00
12799;BME280;19250;42.646;26.980;2023-05-17T00:08:53;98460.75;;;16.62;100.00
12799;BME280;19250;42.646;26.980;2023-05-17T00:11:20;98482.06;;;16.50;100.00
12799;BME280;19250;42.646;26.980;2023-05-17T00:13:47;98481.28;;;16.17;100.00
12799;BME280;19250;42.646;26.980;2023-05-17T00:16:16;98476.50;;;16.06;100.00
12799;BME280;19250;42.646;26.980;2023-05-17T00:18:43;98481.88;;;15.93;100.00
12799;BME280;19250;42.646;26.980;2023-05-17T00:21:11;98526.78;;;15.45;100.00
12799;BME280;19250;42.646;26.980;2023-05-17T00:23:38;98523.97;;;15.53;100.00
12799;BME280;19250;42.646;26.980;2023-05-17T00:26:05;98522.75;;;15.62;100.00
12799;BME280;19250;42.646;26.980;2023-05-17T00:28:32;98568.09;;;15.37;100.00
12799;BME280;19250;42.646;26.980;2023-05-17T00:30:59;98618.56;;;15.07;100.00
12799;BME280;19250;42.646;26.980;2023-05-17T00:33:28;98627.81;;;15.05;100.00
12799;BME280;19250;42.646;26.980;2023-05-17T00:35:56;98613.19;;;15.07;100.00
12799;BME280;19250;42.646;26.980;2023-05-17T00:38:23;98551.53;;;14.65;100.00
12799;BME280;19250;42.646;26.980;2023-05-17T00:40:50;98623.56;;;14.61;100.00
12799;BME280;19250;42.646;26.980;2023-05-17T00:43:18;98631.78;;;14.81;100.00
12799;BME280;19250;42.646;26.980;2023-05-17T00:45:45;98643.88;;;14.98;100.00
12799;BME280;19250;42.646;26.980;2023-05-17T00:48:14;98629.81;;;15.58;100.00
12799;BME280;19250;42.646;26.980;2023-05-17T00:50:43;98613.78;;;15.71;100.00
12799;BME280;19250;42.646;26.980;2023-05-17T00:53:11;98616.81;;;15.62;100.00
12799;BME280;19250;42.646;26.980;2023-05-17T00:55:41;98599.25;;;15.59;100.00
12799;BME280;19250;42.646;26.980;2023-05-17T00:58:09;98598.75;;;16.03;100.00
12799;BME280;19250;42.646;26.980;2023-05-17T01:00:37;98570.78;;;15.91;100.00
12799;BME280;19250;42.646;26.980;2023-05-17T01:03:05;98567.78;;;16.20;100.00
12799;BME280;19250;42.646;26.980;2023-05-17T01:05:32;98565.91;;;16.41;100.00
12799;BME280;19250;42.646;26.980;2023-05-17T01:08:01;98580.38;;;16.20;100.00
12799;BME280;19250;42.646;26.980;2023-05-17T01:10:35;98578.50;;;16.27;100.00
12799;BME280;19250;42.646;26.980;2023-05-17T01:13:09;98560.16;;;16.63;100.00
12799;BME280;19250;42.646;26.980;2023-05-17T01:15:45;98545.03;;;16.62;100.00
12799;BME280;19250;42.646;26.980;2023-05-17T01:18:21;98515.19;;;16.24;100.00
12799;BME280;19250;42.646;26.980;2023-05-17T01:20:50;98522.84;;;16.01;100.00
12799;BME280;19250;42.646;26.980;2023-05-17T01:23:38;98440.28;;;15.95;100.00
12799;BME280;19250;42.646;26.980;2023-05-17T01:26:13;98493.91;;;16.62;100.00
12799;BME280;19250;42.646;26.980;2023-05-17T01:28:45;98483.53;;;16.59;100.00
12799;BME280;19250;42.646;26.980;2023-05-17T01:31:13;98457.78;;;16.90;100.00
12799;BME280;19250;42.646;26.980;2023-05-17T01:33:41;98458.66;;;16.70;100.00
12799;BME280;19250;42.646;26.980;2023-05-17T01:36:08;98446.44;;;16.68;100.00
12799;BME280;19250;42.646;26.980;2023-05-17T01:38:35;98444.31;;;16.90;100.00
12799;BME280;19250;42.646;26.980;2023-05-17T01:41:07;98456.19;;;16.75;100.00
12799;BME280;19250;42.646;26.980;2023-05-17T01:43:42;98438.78;;;16.78;100.00
12799;BME280;19250;42.646;26.980;2023-05-17T01:46:18;98416.84;;;16.68;100.00
12799;BME280;19250;42.646;26.980;2023-05-17T01:48:57;98405.25;;;16.67;100.00
12799;BME280;19250;42.646;26.980;2023-05-17T01:51:27;98384.53;;;16.68;100.00
12799;BME280;19250;42.646;26.980;2023-05-17T01:54:04;98387.22;;;16.74;100.00
12799;BME280;19250;42.646;26.980;2023-05-17T01:56:40;98382.84;;;16.80;100.00
12799;BME280;19250;42.646;26.980;2023-05-17T01:59:10;98373.22;;;16.97;100.00
12799;BME280;19250;42.646;26.980;2023-05-17T02:01:43;98379.19;;;17.12;100.00
12799;BME280;19250;42.646;26.980;2023-05-17T02:04:10;98375.19;;;17.21;100.00
12799;BME280;19250;42.646;26.980;2023-05-17T02:06:38;98321.03;;;16.92;100.00
12799;BME280;19250;42.646;26.980;2023-05-17T02:09:05;98380.97;;;16.80;100.00
12799;BME280;19250;42.646;26.980;2023-05-17T02:11:32;98386.72;;;16.00;100.00
12799;BME280;19250;42.646;26.980;2023-05-17T02:13:59;98381.91;;;16.28;100.00
12799;BME280;19250;42.646;26.980;2023-05-17T02:16:26;98388.13;;;16.22;100.00
12799;BME280;19250;42.646;26.980;2023-05-17T02:18:55;98387.56;;;15.74;100.00
12799;BME280;19250;42.646;26.980;2023-05-17T02:21:22;98384.56;;;15.30;100.00
12799;BME280;19250;42.646;26.980;2023-05-17T02:23:50;98372.13;;;15.09;100.00
12799;BME280;19250;42.646;26.980;2023-05-17T02:26:17;98377.25;;;14.91;100.00
12799;BME280;19250;42.646;26.980;2023-05-17T02:28:44;98396.59;;;15.41;100.00
12799;BME280;19250;42.646;26.980;2023-05-17T02:31:11;98413.69;;;15.13;100.00
12799;BME280;19250;42.646;26.980;2023-05-17T02:33:38;98426.34;;;15.46;100.00
12799;BME280;19250;42.646;26.980;2023-05-17T02:36:07;98445.34;;;15.38;100.00
12799;BME280;19250;42.646;26.980;2023-05-17T02:38:35;98435.81;;;15.29;100.00
12799;BME280;19250;42.646;26.980;2023-05-17T02:41:02;98440.38;;;15.35;100.00
12799;BME280;19250;42.646;26.980;2023-05-17T02:43:29;98463.50;;;15.22;100.00
12799;BME280;19250;42.646;26.980;2023-05-17T02:45:56;98474.59;;;15.13;100.00
12799;BME280;19250;42.646;26.980;2023-05-17T02:48:23;98487.81;;;15.14;100.00
12799;BME280;19250;42.646;26.980;2023-05-17T02:50:51;98478.59;;;14.83;100.00
12799;BME280;19250;42.646;26.980;2023-05-17T02:53:19;98480.19;;;14.77;100.00
12799;BME280;19250;42.646;26.980;2023-05-17T02:55:47;98486.47;;;14.91;100.00
12799;BME280;19250;42.646;26.980;2023-05-17T02:58:14;98465.72;;;15.12;100.00
12799;BME280;19250;42.646;26.980;2023-05-17T03:00:43;98475.91;;;14.89;100.00
12799;BME280;19250;42.646;26.980;2023-05-17T03:03:11;98477.03;;;15.01;100.00
12799;BME280;19250;42.646;26.980;2023-05-17T03:05:38;98482.16;;;15.44;100.00
12799;BME280;19250;42.646;26.980;2023-05-17T03:08:05;98476.84;;;15.63;100.00
12799;BME280;19250;42.646;26.980;2023-05-17T03:10:34;98487.53;;;14.96;100.00
12799;BME280;19250;42.646;26.980;2023-05-17T03:13:01;98480.28;;;14.56;100.00
12799;BME280;19250;42.646;26.980;2023-05-17T03:15:28;98476.00;;;14.61;100.00
12799;BME280;19250;42.646;26.980;2023-05-17T03:17:55;98474.09;;;14.55;100.00
12799;BME280;19250;42.646;26.980;2023-05-17T03:20:23;98464.25;;;15.10;100.00
12799;BME280;19250;42.646;26.980;2023-05-17T03:22:50;98476.09;;;15.96;100.00
12799;BME280;19250;42.646;26.980;2023-05-17T03:25:17;98473.81;;;16.25;100.00
12799;BME280;19250;42.646;26.980;2023-05-17T03:27:46;98489.50;;;16.48;100.00
12799;BME280;19250;42.646;26.980;2023-05-17T03:30:13;98492.03;;;16.56;100.00
12799;BME280;19250;42.646;26.980;2023-05-17T03:32:41;98494.28;;;16.72;100.00
12799;BME280;19250;42.646;26.980;2023-05-17T03:35:08;98513.75;;;16.68;100.00
12799;BME280;19250;42.646;26.980;2023-05-17T03:37:35;98516.63;;;16.79;100.00
12799;BME280;19250;42.646;26.980;2023-05-17T03:40:03;98515.81;;;16.53;100.00
12799;BME280;19250;42.646;26.980;2023-05-17T03:42:31;98517.69;;;16.59;100.00
12799;BME280;19250;42.646;26.980;2023-05-17T03:44:59;98515.00;;;16.65;100.00
12799;BME280;19250;42.646;26.980;2023-05-17T03:47:26;98500.47;;;16.79;100.00
12799;BME280;19250;42.646;26.980;2023-05-17T03:49:54;98494.66;;;16.82;100.00
12799;BME280;19250;42.646;26.980;2023-05-17T03:52:21;98504.19;;;16.85;100.00
12799;BME280;19250;42.646;26.980;2023-05-17T03:54:48;98514.66;;;17.26;100.00
12799;BME280;19250;42.646;26.980;2023-05-17T03:57:16;98519.72;;;17.60;100.00
12799;BME280;19250;42.646;26.980;2023-05-17T03:59:44;98527.56;;;17.62;100.00
12799;BME280;19250;42.646;26.980;2023-05-17T04:02:14;98531.34;;;17.61;100.00
12799;BME280;19250;42.646;26.980;2023-05-17T04:04:47;98537.63;;;17.35;100.00
12799;BME280;19250;42.646;26.980;2023-05-17T04:07:14;98538.78;;;17.59;100.00
12799;BME280;19250;42.646;26.980;2023-05-17T04:09:41;98539.59;;;17.53;100.00
12799;BME280;19250;42.646;26.980;2023-05-17T04:12:08;98545.09;;;17.33;100.00
12799;BME280;19250;42.646;26.980;2023-05-17T04:14:36;98523.53;;;17.33;100.00
12799;BME280;19250;42.646;26.980;2023-05-17T04:17:03;98525.09;;;17.03;100.00
12799;BME280;19250;42.646;26.980;2023-05-17T04:19:32;98540.53;;;17.33;100.00
12799;BME280;19250;42.646;26.980;2023-05-17T04:22:00;98535.50;;;17.43;100.00
12799;BME280;19250;42.646;26.980;2023-05-17T04:24:27;98550.41;;;17.46;100.00
12799;BME280;19250;42.646;26.980;2023-05-17T04:26:54;98537.28;;;17.69;100.00
12799;BME280;19250;42.646;26.980;2023-05-17T04:29:21;98506.22;;;17.09;100.00
12799;BME280;19250;42.646;26.980;2023-05-17T04:31:48;98532.50;;;17.14;100.00
12799;BME280;19250;42.646;26.980;2023-05-17T04:34:16;98536.78;;;17.34;100.00
12799;BME280;19250;42.646;26.980;2023-05-17T04:36:44;98484.78;;;16.17;100.00
12799;BME280;19250;42.646;26.980;2023-05-17T04:39:12;98521.91;;;17.25;100.00
12799;BME280;19250;42.646;26.980;2023-05-17T04:41:39;98528.50;;;17.36;100.00
12799;BME280;19250;42.646;26.980;2023-05-17T04:44:06;98536.75;;;17.48;100.00
12799;BME280;19250;42.646;26.980;2023-05-17T04:46:33;98534.38;;;17.71;100.00
12799;BME280;19250;42.646;26.980;2023-05-17T04:49:01;98536.47;;;17.69;100.00
12799;BME280;19250;42.646;26.980;2023-05-17T04:51:28;98537.94;;;17.65;100.00
12799;BME280;19250;42.646;26.980;2023-05-17T04:53:57;98564.56;;;17.41;100.00
12799;BME280;19250;42.646;26.980;2023-05-17T04:56:25;98554.22;;;17.32;100.00
12799;BME280;19250;42.646;26.980;2023-05-17T04:58:53;98559.94;;;17.62;100.00
12799;BME280;19250;42.646;26.980;2023-05-17T05:01:20;98566.84;;;17.89;100.00
12799;BME280;19250;42.646;26.980;2023-05-17T05:03:47;98563.38;;;17.24;100.00
12799;BME280;19250;42.646;26.980;2023-05-17T05:06:15;98551.25;;;17.47;100.00
12799;BME280;19250;42.646;26.980;2023-05-17T05:08:42;98548.28;;;17.68;100.00
12799;BME280;19250;42.646;26.980;2023-05-17T05:11:11;98544.66;;;17.42;100.00
12799;BME280;19250;42.646;26.980;2023-05-17T05:13:38;98551.63;;;16.99;100.00
12799;BME280;19250;42.646;26.980;2023-05-17T05:16:06;98550.75;;;17.18;100.00
12799;BME280;19250;42.646;26.980;2023-05-17T05:18:34;98553.97;;;17.40;100.00
12799;BME280;19250;42.646;26.980;2023-05-17T05:21:01;98557.34;;;17.16;100.00
12799;BME280;19250;42.646;26.980;2023-05-17T05:23:28;98544.03;;;17.34;100.00
12799;BME280;19250;42.646;26.980;2023-05-17T05:25:56;98550.41;;;17.53;100.00
12799;BME280;19250;42.646;26.980;2023-05-17T05:28:24;98547.13;;;17.37;100.00
12799;BME280;19250;42.646;26.980;2023-05-17T05:30:56;98578.44;;;17.45;100.00
12799;BME280;19250;42.646;26.980;2023-05-17T05:33:24;98600.28;;;17.04;100.00
12799;BME280;19250;42.646;26.980;2023-05-17T05:35:51;98593.22;;;16.31;100.00
12799;BME280;19250;42.646;26.980;2023-05-17T05:38:18;98597.03;;;16.63;100.00
12799;BME280;19250;42.646;26.980;2023-05-17T05:40:45;98594.09;;;16.71;100.00
12799;BME280;19250;42.646;26.980;2023-05-17T05:43:13;98588.47;;;16.20;100.00
12799;BME280;19250;42.646;26.980;2023-05-17T05:45:42;98585.75;;;16.13;100.00
12799;BME280;19250;42.646;26.980;2023-05-17T05:48:11;98594.84;;;16.12;100.00
12799;BME280;19250;42.646;26.980;2023-05-17T05:50:40;98587.81;;;16.11;100.00
12799;BME280;19250;42.646;26.980;2023-05-17T05:53:08;98583.91;;;16.20;100.00
12799;BME280;19250;42.646;26.980;2023-05-17T05:55:39;98579.94;;;16.03;100.00
12799;BME280;19250;42.646;26.980;2023-05-17T05:58:06;98587.38;;;16.01;100.00
12799;BME280;19250;42.646;26.980;2023-05-17T06:00:34;98594.25;;;16.37;100.00
12799;BME280;19250;42.646;26.980;2023-05-17T06:03:03;98528.63;;;16.24;100.00
12799;BME280;19250;42.646;26.980;2023-05-17T06:05:30;98601.78;;;16.87;100.00
12799;BME280;19250;42.646;26.980;2023-05-17T06:07:58;98598.84;;;17.08;100.00
12799;BME280;19250;42.646;26.980;2023-05-17T06:10:25;98593.63;;;17.13;100.00
12799;BME280;19250;42.646;26.980;2023-05-17T06:12:52;98604.84;;;17.10;100.00
12799;BME280;19250;42.646;26.980;2023-05-17T06:15:19;98607.28;;;17.25;100.00
12799;BME280;19250;42.646;26.980;2023-05-17T06:17:46;98580.44;;;17.69;100.00
12799;BME280;19250;42.646;26.980;2023-05-17T06:20:15;98593.16;;;18.00;100.00
12799;BME280;19250;42.646;26.980;2023-05-17T06:22:43;98594.19;;;17.99;100.00
12799;BME280;19250;42.646;26.980;2023-05-17T06:25:10;98595.66;;;18.33;100.00
12799;BME280;19250;42.646;26.980;2023-05-17T06:27:37;98596.34;;;18.53;100.00
12799;BME280;19250;42.646;26.980;2023-05-17T06:30:06;98607.50;;;18.63;100.00
12799;BME280;19250;42.646;26.980;2023-05-17T06:32:34;98606.84;;;18.68;100.00
12799;BME280;19250;42.646;26.980;2023-05-17T06:35:01;98611.09;;;18.57;100.00
12799;BME280;19250;42.646;26.980;2023-05-17T06:37:30;98604.31;;;18.41;100.00
12799;BME280;19250;42.646;26.980;2023-05-17T06:40:01;98604.88;;;18.50;100.00
12799;BME280;19250;42.646;26.980;2023-05-17T06:42:30;98604.59;;;18.89;100.00
12799;BME280;19250;42.646;26.980;2023-05-17T06:44:58;98594.44;;;18.60;100.00
12799;BME280;19250;42.646;26.980;2023-05-17T06:47:25;98593.50;;;18.41;100.00
12799;BME280;19250;42.646;26.980;2023-05-17T06:49:52;98596.09;;;18.86;100.00
12799;BME280;19250;42.646;26.980;2023-05-17T06:52:20;98595.38;;;18.72;100.00
12799;BME280;19250;42.646;26.980;2023-05-17T06:54:48;98588.84;;;18.62;100.00
12799;BME280;19250;42.646;26.980;2023-05-17T06:57:15;98595.28;;;18.61;100.00
12799;BME280;19250;42.646;26.980;2023-05-17T06:59:42;98610.34;;;18.06;100.00
12799;BME280;19250;42.646;26.980;2023-05-17T07:02:10;98612.09;;;17.87;100.00
12799;BME280;19250;42.646;26.980;2023-05-17T07:04:38;98611.13;;;17.68;100.00
12799;BME280;19250;42.646;26.980;2023-05-17T07:07:05;98617.53;;;17.74;100.00
12799;BME280;19250;42.646;26.980;2023-05-17T07:09:32;98617.59;;;17.54;100.00
12799;BME280;19250;42.646;26.980;2023-05-17T07:12:01;98616.06;;;17.78;100.00
12799;BME280;19250;42.646;26.980;2023-05-17T07:14:28;98606.81;;;17.54;100.00
12799;BME280;19250;42.646;26.980;2023-05-17T07:16:55;98599.00;;;17.90;100.00
12799;BME280;19250;42.646;26.980;2023-05-17T07:19:22;98600.72;;;17.78;100.00
12799;BME280;19250;42.646;26.980;2023-05-17T07:21:51;98603.69;;;17.70;100.00
12799;BME280;19250;42.646;26.980;2023-05-17T07:24:18;98608.09;;;17.45;100.00
12799;BME280;19250;42.646;26.980;2023-05-17T07:26:45;98599.72;;;17.73;100.00
12799;BME280;19250;42.646;26.980;2023-05-17T07:29:14;98589.63;;;17.49;100.00
12799;BME280;19250;42.646;26.980;2023-05-17T07:31:41;98578.19;;;17.60;100.00
12799;BME280;19250;42.646;26.980;2023-05-17T07:34:08;98588.81;;;17.92;100.00
12799;BME280;19250;42.646;26.980;2023-05-17T07:36:36;98594.75;;;17.70;100.00
12799;BME280;19250;42.646;26.980;2023-05-17T07:39:03;98571.59;;;17.42;100.00
12799;BME280;19250;42.646;26.980;2023-05-17T07:41:31;98593.44;;;17.21;100.00
12799;BME280;19250;42.646;26.980;2023-05-17T07:43:58;98612.72;;;17.12;100.00
12799;BME280;19250;42.646;26.980;2023-05-17T07:46:27;98601.94;;;17.12;100.00
12799;BME280;19250;42.646;26.980;2023-05-17T07:48:54;98603.88;;;17.69;100.00
12799;BME280;19250;42.646;26.980;2023-05-17T07:51:21;98595.78;;;17.69;100.00
12799;BME280;19250;42.646;26.980;2023-05-17T07:53:49;98596.25;;;17.46;100.00
12799;BME280;19250;42.646;26.980;2023-05-17T07:56:16;98604.81;;;17.36;100.00
12799;BME280;19250;42.646;26.980;2023-05-17T07:58:43;98604.22;;;17.85;100.00
12799;BME280;19250;42.646;26.980;2023-05-17T08:01:10;98610.06;;;17.82;100.00
12799;BME280;19250;42.646;26.980;2023-05-17T08:03:39;98602.16;;;17.81;100.00
12799;BME280;19250;42.646;26.980;2023-05-17T08:06:12;98599.88;;;18.22;100.00
12799;BME280;19250;42.646;26.980;2023-05-17T08:08:40;98585.91;;;18.01;100.00
12799;BME280;19250;42.646;26.980;2023-05-17T08:11:08;98596.41;;;18.09;100.00
12799;BME280;19250;42.646;26.980;2023-05-17T08:13:35;98588.97;;;18.04;100.00
12799;BME280;19250;42.646;26.980;2023-05-17T08:16:03;98588.41;;;18.27;100.00
12799;BME280;19250;42.646;26.980;2023-05-17T08:18:32;98584.19;;;18.06;100.00
12799;BME280;19250;42.646;26.980;2023-05-17T08:21:01;98570.44;;;18.45;100.00
12799;BME280;19250;42.646;26.980;2023-05-17T08:23:29;98575.78;;;18.21;100.00
12799;BME280;19250;42.646;26.980;2023-05-17T08:25:56;98584.84;;;18.33;100.00
12799;BME280;19250;42.646;26.980;2023-05-17T08:28:24;98582.38;;;18.31;100.00
12799;BME280;19250;42.646;26.980;2023-05-17T08:30:51;98580.75;;;18.24;100.00
12799;BME280;19250;42.646;26.980;2023-05-17T08:33:18;98584.88;;;18.26;100.00
12799;BME280;19250;42.646;26.980;2023-05-17T08:35:47;98580.53;;;18.57;100.00
12799;BME280;19250;42.646;26.980;2023-05-17T08:38:16;98572.03;;;18.53;100.00
12799;BME280;19250;42.646;26.980;2023-05-17T08:40:43;98580.41;;;18.76;100.00
12799;BME280;19250;42.646;26.980;2023-05-17T08:43:11;98586.94;;;18.87;100.00
12799;BME280;19250;42.646;26.980;2023-05-17T08:45:39;98581.66;;;18.74;100.00
12799;BME280;19250;42.646;26.980;2023-05-17T08:48:06;98587.81;;;18.81;100.00
12799;BME280;19250;42.646;26.980;2023-05-17T08:50:34;98585.75;;;18.83;100.00
12799;BME280;19250;42.646;26.980;2023-05-17T08:53:03;98593.66;;;18.78;100.00
12799;BME280;19250;42.646;26.980;2023-05-17T08:55:32;98592.28;;;19.54;100.00
12799;BME280;19250;42.646;26.980;2023-05-17T08:58:00;98604.47;;;19.64;100.00
12799;BME280;19250;42.646;26.980;2023-05-17T09:00:28;98568.63;;;19.68;100.00
12799;BME280;19250;42.646;26.980;2023-05-17T09:02:58;98593.31;;;20.20;100.00
12799;BME280;19250;42.646;26.980;2023-05-17T09:05:26;98591.47;;;20.61;100.00
12799;BME280;19250;42.646;26.980;2023-05-17T09:07:55;98595.88;;;19.85;100.00
12799;BME280;19250;42.646;26.980;2023-05-17T09:10:23;98601.81;;;20.23;100.00
12799;BME280;19250;42.646;26.980;2023-05-17T09:12:52;98593.25;;;19.96;100.00
12799;BME280;19250;42.646;26.980;2023-05-17T09:15:21;98590.16;;;20.23;100.00
12799;BME280;19250;42.646;26.980;2023-05-17T09:17:52;98595.16;;;20.26;100.00
12799;BME280;19250;42.646;26.980;2023-05-17T09:20:23;98593.50;;;20.06;100.00
12799;BME280;19250;42.646;26.980;2023-05-17T09:22:50;98589.50;;;20.27;100.00
12799;BME280;19250;42.646;26.980;2023-05-17T09:25:23;98582.19;;;20.69;100.00
12799;BME280;19250;42.646;26.980;2023-05-17T09:27:53;98595.53;;;20.94;100.00
12799;BME280;19250;42.646;26.980;2023-05-17T09:30:26;98569.09;;;20.54;100.00
12799;BME280;19250;42.646;26.980;2023-05-17T09:32:53;98593.50;;;21.01;100.00
12799;BME280;19250;42.646;26.980;2023-05-17T09:35:26;98600.97;;;21.29;100.00
12799;BME280;19250;42.646;26.980;2023-05-17T09:37:56;98589.22;;;20.58;100.00
12799;BME280;19250;42.646;26.980;2023-05-17T09:40:30;98577.78;;;20.56;100.00
12799;BME280;19250;42.646;26.980;2023-05-17T09:42:58;98591.50;;;20.85;100.00
12799;BME280;19250;42.646;26.980;2023-05-17T09:45:26;98593.97;;;20.75;100.00
12799;BME280;19250;42.646;26.980;2023-05-17T09:47:53;98584.16;;;20.50;100.00
12799;BME280;19250;42.646;26.980;2023-05-17T09:50:20;98577.16;;;20.43;100.00
12799;BME280;19250;42.646;26.980;2023-05-17T09:52:47;98575.06;;;20.45;100.00
12799;BME280;19250;42.646;26.980;2023-05-17T09:55:14;98568.91;;;20.26;100.00
12799;BME280;19250;42.646;26.980;2023-05-17T09:57:41;98559.75;;;20.39;100.00
12799;BME280;19250;42.646;26.980;2023-05-17T10:00:10;98555.06;;;20.16;100.00
12799;BME280;19250;42.646;26.980;2023-05-17T10:02:37;98550.53;;;19.98;100.00
12799;BME280;19250;42.646;26.980;2023-05-17T10:05:07;98547.72;;;20.05;100.00
12799;BME280;19250;42.646;26.980;2023-05-17T10:07:35;98550.94;;;20.14;100.00
12799;BME280;19250;42.646;26.980;2023-05-17T10:10:03;98546.78;;;19.99;100.00
12799;BME280;19250;42.646;26.980;2023-05-17T10:12:31;98548.69;;;19.81;100.00
12799;BME280;19250;42.646;26.980;2023-05-17T10:14:59;98551.22;;;19.46;100.00
12799;BME280;19250;42.646;26.980;2023-05-17T10:17:28;98556.25;;;19.42;100.00
12799;BME280;19250;42.646;26.980;2023-05-17T10:19:55;98558.78;;;19.19;100.00
12799;BME280;19250;42.646;26.980;2023-05-17T10:22:22;98552.44;;;19.07;100.00
12799;BME280;19250;42.646;26.980;2023-05-17T10:24:50;98548.09;;;19.06;100.00
12799;BME280;19250;42.646;26.980;2023-05-17T10:27:17;98550.31;;;18.91;100.00
12799;BME280;19250;42.646;26.980;2023-05-17T10:29:43;98544.94;;;18.66;100.00
12799;BME280;19250;42.646;26.980;2023-05-17T10:32:12;98535.66;;;18.62;100.00
12799;BME280;19250;42.646;26.980;2023-05-17T10:34:42;98529.63;;;19.03;100.00
12799;BME280;19250;42.646;26.980;2023-05-17T10:37:10;98531.81;;;19.13;100.00
12799;BME280;19250;42.646;26.980;2023-05-17T10:39:37;98527.13;;;19.44;100.00
12799;BME280;19250;42.646;26.980;2023-05-17T10:42:05;98511.00;;;19.31;100.00
12799;BME280;19250;42.646;26.980;2023-05-17T10:44:33;98514.38;;;19.09;100.00
12799;BME280;19250;42.646;26.980;2023-05-17T10:47:00;98508.75;;;18.92;100.00
12799;BME280;19250;42.646;26.980;2023-05-17T10:49:29;98504.66;;;18.40;100.00
12799;BME280;19250;42.646;26.980;2023-05-17T10:51:57;98497.47;;;18.27;100.00
12799;BME280;19250;42.646;26.980;2023-05-17T10:54:34;98489.16;;;18.29;100.00
12799;BME280;19250;42.646;26.980;2023-05-17T10:57:03;98485.31;;;18.43;100.00
12799;BME280;19250;42.646;26.980;2023-05-17T10:59:30;98485.69;;;18.46;100.00
12799;BME280;19250;42.646;26.980;2023-05-17T11:01:57;98473.53;;;18.37;100.00
12799;BME280;19250;42.646;26.980;2023-05-17T11:04:25;98477.22;;;18.18;100.00
12799;BME280;19250;42.646;26.980;2023-05-17T11:06:54;98484.94;;;17.83;100.00
12799;BME280;19250;42.646;26.980;2023-05-17T11:09:42;98482.94;;;17.72;100.00
12799;BME280;19250;42.646;26.980;2023-05-17T11:12:10;98486.63;;;17.78;100.00
12799;BME280;19250;42.646;26.980;2023-05-17T11:14:47;98492.28;;;17.70;100.00
12799;BME280;19250;42.646;26.980;2023-05-17T11:17:17;98486.97;;;17.57;100.00
12799;BME280;19250;42.646;26.980;2023-05-17T11:20:00;98485.50;;;17.61;100.00
12799;BME280;19250;42.646;26.980;2023-05-17T11:22:27;98493.13;;;17.70;100.00
12799;BME280;19250;42.646;26.980;2023-05-17T11:25:04;98494.25;;;17.87;100.00
12799;BME280;19250;42.646;26.980;2023-05-17T11:27:34;98494.28;;;17.81;100.00
12799;BME280;19250;42.646;26.980;2023-05-17T11:30:06;98487.06;;;17.75;100.00
12799;BME280;19250;42.646;26.980;2023-05-17T11:32:33;98484.09;;;17.83;100.00
12799;BME280;19250;42.646;26.980;2023-05-17T11:35:00;98491.16;;;18.15;100.00
12799;BME280;19250;42.646;26.980;2023-05-17T11:37:27;98500.19;;;17.96;100.00
12799;BME280;19250;42.646;26.980;2023-05-17T11:40:03;98498.84;;;18.12;100.00
12799;BME280;19250;42.646;26.980;2023-05-17T11:42:31;98495.28;;;18.18;100.00
12799;BME280;19250;42.646;26.980;2023-05-17T11:44:59;98495.75;;;17.77;100.00
12799;BME280;19250;42.646;26.980;2023-05-17T11:47:26;98494.78;;;17.65;100.00
12799;BME280;19250;42.646;26.980;2023-05-17T11:49:54;98500.59;;;17.62;100.00
12799;BME280;19250;42.646;26.980;2023-05-17T11:52:21;98508.47;;;17.70;100.00
12799;BME280;19250;42.646;26.980;2023-05-17T11:54:48;98498.72;;;17.69;100.00
12799;BME280;19250;42.646;26.980;2023-05-17T11:57:18;98484.44;;;17.93;100.00
12799;BME280;19250;42.646;26.980;2023-05-17T11:59:47;98479.66;;;17.95;100.00
12799;BME280;19250;42.646;26.980;2023-05-17T12:04:55;98481.94;;;18.23;100.00
12799;BME280;19250;42.646;26.980;2023-05-17T12:07:22;98477.25;;;18.36;100.00
12799;BME280;19250;42.646;26.980;2023-05-17T12:09:50;98480.25;;;18.28;100.00
12799;BME280;19250;42.646;26.980;2023-05-17T12:12:18;98431.47;;;18.23;100.00
12799;BME280;19250;42.646;26.980;2023-05-17T12:14:46;98468.78;;;18.58;100.00
12799;BME280;19250;42.646;26.980;2023-05-17T12:17:20;98463.88;;;18.48;100.00
12799;BME280;19250;42.646;26.980;2023-05-17T12:19:50;98469.56;;;18.65;100.00
12799;BME280;19250;42.646;26.980;2023-05-17T12:22:17;98472.47;;;18.63;100.00
12799;BME280;19250;42.646;26.980;2023-05-17T12:24:44;98467.41;;;18.48;100.00
12799;BME280;19250;42.646;26.980;2023-05-17T12:27:11;98470.19;;;18.35;100.00
12799;BME280;19250;42.646;26.980;2023-05-17T12:29:39;98466.25;;;18.63;100.00
12799;BME280;19250;42.646;26.980;2023-05-17T12:32:06;98464.56;;;19.05;100.00
12799;BME280;19250;42.646;26.980;2023-05-17T12:34:34;98452.28;;;18.84;100.00
12799;BME280;19250;42.646;26.980;2023-05-17T12:37:01;98456.34;;;18.75;100.00
12799;BME280;19250;42.646;26.980;2023-05-17T12:39:28;98453.34;;;18.65;100.00
12799;BME280;19250;42.646;26.980;2023-05-17T12:41:56;98446.38;;;18.93;100.00
12799;BME280;19250;42.646;26.980;2023-05-17T12:44:23;98444.94;;;19.09;100.00
12799;BME280;19250;42.646;26.980;2023-05-17T12:46:52;98445.63;;;19.23;100.00
12799;BME280;19250;42.646;26.980;2023-05-17T12:49:20;98443.00;;;18.80;100.00